sensor_id;sensor_type;location;lat;lon;timestamp;P1;durP1;ratioP1;P2;durP2;ratioP2
70605;SDS011;58173;52.500;5.494;2024-01-15T00:00:39;2.15;;;0.90;;
70605;SDS011;58173;52.500;5.494;2024-01-15T00:03:06;3.45;;;0.77;;
70605;SDS011;58173;52.500;5.494;2024-01-15T00:05:33;3.30;;;0.55;;
70605;SDS011;58173;52.500;5.494;2024-01-15T00:08:01;3.35;;;0.82;;
70605;SDS011;58173;52.500;5.494;2024-01-15T00:10:28;2.28;;;0.50;;
70605;SDS011;58173;52.500;5.494;2024-01-15T00:12:55;5.20;;;0.77;;
70605;SDS011;58173;52.500;5.494;2024-01-15T00:15:22;1.65;;;0.80;;
70605;SDS011;58173;52.500;5.494;2024-01-15T00:17:50;4.72;;;0.95;;
70605;SDS011;58173;52.500;5.494;2024-01-15T00:20:17;3.33;;;0.80;;
70605;SDS011;58173;52.500;5.494;2024-01-15T00:22:44;3.17;;;0.90;;
70605;SDS011;58173;52.500;5.494;2024-01-15T00:25:11;2.85;;;0.70;;
70605;SDS011;58173;52.500;5.494;2024-01-15T00:27:39;2.70;;;0.57;;
70605;SDS011;58173;52.500;5.494;2024-01-15T00:30:06;5.10;;;0.75;;
70605;SDS011;58173;52.500;5.494;2024-01-15T00:32:34;5.30;;;0.93;;
70605;SDS011;58173;52.500;5.494;2024-01-15T00:35:01;3.13;;;0.70;;
70605;SDS011;58173;52.500;5.494;2024-01-15T00:37:29;3.13;;;0.60;;
70605;SDS011;58173;52.500;5.494;2024-01-15T00:39:56;3.95;;;0.82;;
70605;SDS011;58173;52.500;5.494;2024-01-15T00:42:24;5.35;;;0.90;;
70605;SDS011;58173;52.500;5.494;2024-01-15T00:44:51;6.60;;;0.88;;
70605;SDS011;58173;52.500;5.494;2024-01-15T00:47:18;4.57;;;0.95;;
70605;SDS011;58173;52.500;5.494;2024-01-15T00:49:46;2.65;;;0.32;;
70605;SDS011;58173;52.500;5.494;2024-01-15T00:52:13;4.18;;;0.70;;
70605;SDS011;58173;52.500;5.494;2024-01-15T00:54:40;5.35;;;0.95;;
70605;SDS011;58173;52.500;5.494;2024-01-15T00:57:07;3.65;;;0.85;;
70605;SDS011;58173;52.500;5.494;2024-01-15T00:59:34;2.75;;;0.68;;
70605;SDS011;58173;52.500;5.494;2024-01-15T01:02:02;4.15;;;0.95;;
70605;SDS011;58173;52.500;5.494;2024-01-15T01:04:29;3.22;;;0.85;;
70605;SDS011;58173;52.500;5.494;2024-01-15T01:06:56;4.95;;;0.95;;
70605;SDS011;58173;52.500;5.494;2024-01-15T01:09:24;2.17;;;0.52;;
70605;SDS011;58173;52.500;5.494;2024-01-15T01:11:51;3.20;;;0.52;;
70605;SDS011;58173;52.500;5.494;2024-01-15T01:14:18;2.65;;;0.50;;
70605;SDS011;58173;52.500;5.494;2024-01-15T01:16:45;4.10;;;0.70;;
70605;SDS011;58173;52.500;5.494;2024-01-15T01:19:12;2.72;;;0.60;;
70605;SDS011;58173;52.500;5.494;2024-01-15T01:21:40;2.80;;;0.50;;
70605;SDS011;58173;52.500;5.494;2024-01-15T01:24:07;4.38;;;0.63;;
70605;SDS011;58173;52.500;5.494;2024-01-15T01:26:34;8.43;;;0.60;;
70605;SDS011;58173;52.500;5.494;2024-01-15T01:29:02;2.40;;;0.57;;
70605;SDS011;58173;52.500;5.494;2024-01-15T01:31:29;2.65;;;0.93;;
70605;SDS011;58173;52.500;5.494;2024-01-15T01:33:56;1.95;;;0.52;;
70605;SDS011;58173;52.500;5.494;2024-01-15T01:36:24;4.63;;;0.60;;
70605;SDS011;58173;52.500;5.494;2024-01-15T01:38:51;3.53;;;0.65;;
70605;SDS011;58173;52.500;5.494;2024-01-15T01:41:18;4.28;;;0.70;;
70605;SDS011;58173;52.500;5.494;2024-01-15T01:43:45;2.58;;;0.80;;
70605;SDS011;58173;52.500;5.494;2024-01-15T01:46:12;2.90;;;0.47;;
70605;SDS011;58173;52.500;5.494;2024-01-15T01:48:39;1.25;;;0.38;;
70605;SDS011;58173;52.500;5.494;2024-01-15T01:51:07;1.27;;;0.20;;
70605;SDS011;58173;52.500;5.494;2024-01-15T01:53:34;6.32;;;0.65;;
70605;SDS011;58173;52.500;5.494;2024-01-15T01:56:03;3.58;;;0.63;;
70605;SDS011;58173;52.500;5.494;2024-01-15T01:58:31;2.92;;;0.50;;
70605;SDS011;58173;52.500;5.494;2024-01-15T02:00:59;1.17;;;0.60;;
70605;SDS011;58173;52.500;5.494;2024-01-15T02:03:27;2.08;;;0.50;;
70605;SDS011;58173;52.500;5.494;2024-01-15T02:05:54;2.78;;;0.63;;
70605;SDS011;58173;52.500;5.494;2024-01-15T02:08:22;1.50;;;0.45;;
70605;SDS011;58173;52.500;5.494;2024-01-15T02:10:49;1.98;;;0.70;;
70605;SDS011;58173;52.500;5.494;2024-01-15T02:13:17;0.55;;;0.38;;
70605;SDS011;58173;52.500;5.494;2024-01-15T02:15:44;1.10;;;0.20;;
70605;SDS011;58173;52.500;5.494;2024-01-15T02:18:11;2.33;;;0.57;;
70605;SDS011;58173;52.500;5.494;2024-01-15T02:20:39;1.05;;;0.20;;
70605;SDS011;58173;52.500;5.494;2024-01-15T02:25:33;0.38;;;0.30;;
70605;SDS011;58173;52.500;5.494;2024-01-15T02:28:01;3.63;;;0.93;;
70605;SDS011;58173;52.500;5.494;2024-01-15T02:30:29;4.25;;;0.63;;
70605;SDS011;58173;52.500;5.494;2024-01-15T02:32:57;0.82;;;0.30;;
70605;SDS011;58173;52.500;5.494;2024-01-15T02:35:25;5.15;;;0.63;;
70605;SDS011;58173;52.500;5.494;2024-01-15T02:37:52;2.22;;;0.63;;
70605;SDS011;58173;52.500;5.494;2024-01-15T02:40:19;2.42;;;0.60;;
70605;SDS011;58173;52.500;5.494;2024-01-15T02:42:46;5.07;;;0.70;;
70605;SDS011;58173;52.500;5.494;2024-01-15T02:45:14;5.13;;;0.73;;
70605;SDS011;58173;52.500;5.494;2024-01-15T02:47:42;2.63;;;0.47;;
70605;SDS011;58173;52.500;5.494;2024-01-15T02:50:09;2.78;;;0.80;;
70605;SDS011;58173;52.500;5.494;2024-01-15T02:52:37;4.38;;;0.55;;
70605;SDS011;58173;52.500;5.494;2024-01-15T02:55:04;1.42;;;0.25;;
70605;SDS011;58173;52.500;5.494;2024-01-15T02:57:31;5.70;;;0.65;;
70605;SDS011;58173;52.500;5.494;2024-01-15T02:59:58;4.03;;;0.63;;
70605;SDS011;58173;52.500;5.494;2024-01-15T03:02:25;1.55;;;0.40;;
70605;SDS011;58173;52.500;5.494;2024-01-15T03:04:52;2.33;;;0.57;;
70605;SDS011;58173;52.500;5.494;2024-01-15T03:07:20;0.45;;;0.22;;
70605;SDS011;58173;52.500;5.494;2024-01-15T03:09:47;0.85;;;0.40;;
70605;SDS011;58173;52.500;5.494;2024-01-15T03:12:14;1.90;;;0.52;;
70605;SDS011;58173;52.500;5.494;2024-01-15T03:14:41;1.73;;;0.35;;
70605;SDS011;58173;52.500;5.494;2024-01-15T03:17:09;2.03;;;0.60;;
70605;SDS011;58173;52.500;5.494;2024-01-15T03:19:37;2.53;;;0.55;;
70605;SDS011;58173;52.500;5.494;2024-01-15T03:22:05;0.38;;;0.38;;
70605;SDS011;58173;52.500;5.494;2024-01-15T03:24:34;0.30;;;0.20;;
70605;SDS011;58173;52.500;5.494;2024-01-15T03:27:02;0.85;;;0.20;;
70605;SDS011;58173;52.500;5.494;2024-01-15T03:29:29;6.90;;;0.47;;
70605;SDS011;58173;52.500;5.494;2024-01-15T03:31:56;2.25;;;0.40;;
70605;SDS011;58173;52.500;5.494;2024-01-15T03:34:23;2.58;;;0.32;;
70605;SDS011;58173;52.500;5.494;2024-01-15T03:36:50;1.35;;;0.30;;
70605;SDS011;58173;52.500;5.494;2024-01-15T03:39:18;0.55;;;0.20;;
70605;SDS011;58173;52.500;5.494;2024-01-15T03:41:45;1.15;;;0.28;;
70605;SDS011;58173;52.500;5.494;2024-01-15T03:44:12;1.75;;;0.30;;
70605;SDS011;58173;52.500;5.494;2024-01-15T03:46:39;2.88;;;0.50;;
70605;SDS011;58173;52.500;5.494;2024-01-15T03:49:06;2.67;;;0.40;;
70605;SDS011;58173;52.500;5.494;2024-01-15T03:51:34;1.23;;;0.35;;
70605;SDS011;58173;52.500;5.494;2024-01-15T03:54:01;0.75;;;0.22;;
70605;SDS011;58173;52.500;5.494;2024-01-15T03:56:28;3.45;;;0.95;;
70605;SDS011;58173;52.500;5.494;2024-01-15T03:58:55;3.30;;;0.57;;
70605;SDS011;58173;52.500;5.494;2024-01-15T04:01:23;6.20;;;0.82;;
70605;SDS011;58173;52.500;5.494;2024-01-15T04:03:50;1.40;;;0.60;;
70605;SDS011;58173;52.500;5.494;2024-01-15T04:06:17;3.35;;;0.30;;
70605;SDS011;58173;52.500;5.494;2024-01-15T04:08:44;3.15;;;0.85;;
70605;SDS011;58173;52.500;5.494;2024-01-15T04:11:12;2.15;;;0.50;;
70605;SDS011;58173;52.500;5.494;2024-01-15T04:13:39;2.50;;;0.45;;
70605;SDS011;58173;52.500;5.494;2024-01-15T04:16:08;1.60;;;0.50;;
70605;SDS011;58173;52.500;5.494;2024-01-15T04:18:35;3.15;;;0.57;;
70605;SDS011;58173;52.500;5.494;2024-01-15T04:21:04;2.47;;;0.35;;
70605;SDS011;58173;52.500;5.494;2024-01-15T04:23:32;2.78;;;0.40;;
70605;SDS011;58173;52.500;5.494;2024-01-15T04:25:59;5.43;;;0.63;;
70605;SDS011;58173;52.500;5.494;2024-01-15T04:28:26;2.95;;;0.75;;
70605;SDS011;58173;52.500;5.494;2024-01-15T04:30:53;4.55;;;0.60;;
70605;SDS011;58173;52.500;5.494;2024-01-15T04:33:21;3.20;;;0.47;;
70605;SDS011;58173;52.500;5.494;2024-01-15T04:35:49;3.58;;;0.88;;
70605;SDS011;58173;52.500;5.494;2024-01-15T04:38:16;4.70;;;0.75;;
70605;SDS011;58173;52.500;5.494;2024-01-15T04:40:43;5.28;;;0.88;;
70605;SDS011;58173;52.500;5.494;2024-01-15T04:43:10;1.50;;;0.75;;
70605;SDS011;58173;52.500;5.494;2024-01-15T04:45:38;4.03;;;1.00;;
70605;SDS011;58173;52.500;5.494;2024-01-15T04:48:05;2.10;;;0.50;;
70605;SDS011;58173;52.500;5.494;2024-01-15T04:50:32;0.73;;;0.43;;
70605;SDS011;58173;52.500;5.494;2024-01-15T04:53:00;1.88;;;0.52;;
70605;SDS011;58173;52.500;5.494;2024-01-15T04:55:27;2.67;;;0.75;;
70605;SDS011;58173;52.500;5.494;2024-01-15T04:57:54;2.83;;;0.55;;
70605;SDS011;58173;52.500;5.494;2024-01-15T05:00:21;1.48;;;0.40;;
70605;SDS011;58173;52.500;5.494;2024-01-15T05:02:48;5.90;;;0.90;;
70605;SDS011;58173;52.500;5.494;2024-01-15T05:05:16;1.23;;;0.43;;
70605;SDS011;58173;52.500;5.494;2024-01-15T05:07:43;2.22;;;0.50;;
70605;SDS011;58173;52.500;5.494;2024-01-15T05:10:10;2.10;;;0.30;;
70605;SDS011;58173;52.500;5.494;2024-01-15T05:12:38;0.30;;;0.30;;
70605;SDS011;58173;52.500;5.494;2024-01-15T05:15:05;5.75;;;0.52;;
70605;SDS011;58173;52.500;5.494;2024-01-15T05:17:32;4.20;;;1.13;;
70605;SDS011;58173;52.500;5.494;2024-01-15T05:19:59;0.35;;;0.30;;
70605;SDS011;58173;52.500;5.494;2024-01-15T05:22:27;3.60;;;0.40;;
70605;SDS011;58173;52.500;5.494;2024-01-15T05:24:54;10.52;;;0.47;;
70605;SDS011;58173;52.500;5.494;2024-01-15T05:27:21;1.25;;;0.35;;
70605;SDS011;58173;52.500;5.494;2024-01-15T05:29:49;3.22;;;0.73;;
70605;SDS011;58173;52.500;5.494;2024-01-15T05:32:16;5.57;;;0.60;;
70605;SDS011;58173;52.500;5.494;2024-01-15T05:34:43;3.08;;;0.40;;
70605;SDS011;58173;52.500;5.494;2024-01-15T05:37:10;3.63;;;0.52;;
70605;SDS011;58173;52.500;5.494;2024-01-15T05:39:38;3.13;;;0.30;;
70605;SDS011;58173;52.500;5.494;2024-01-15T05:42:05;0.40;;;0.25;;
70605;SDS011;58173;52.500;5.494;2024-01-15T05:44:33;1.45;;;0.20;;
70605;SDS011;58173;52.500;5.494;2024-01-15T05:47:00;1.95;;;0.50;;
70605;SDS011;58173;52.500;5.494;2024-01-15T05:49:28;3.30;;;0.80;;
70605;SDS011;58173;52.500;5.494;2024-01-15T05:51:55;1.50;;;0.40;;
70605;SDS011;58173;52.500;5.494;2024-01-15T05:54:22;1.77;;;0.57;;
70605;SDS011;58173;52.500;5.494;2024-01-15T05:56:50;1.77;;;0.35;;
70605;SDS011;58173;52.500;5.494;2024-01-15T05:59:17;2.47;;;0.30;;
70605;SDS011;58173;52.500;5.494;2024-01-15T06:01:44;6.18;;;0.60;;
70605;SDS011;58173;52.500;5.494;2024-01-15T06:04:12;3.75;;;0.35;;
70605;SDS011;58173;52.500;5.494;2024-01-15T06:06:39;1.75;;;0.45;;
70605;SDS011;58173;52.500;5.494;2024-01-15T06:09:06;2.42;;;0.43;;
70605;SDS011;58173;52.500;5.494;2024-01-15T06:11:35;2.45;;;0.45;;
70605;SDS011;58173;52.500;5.494;2024-01-15T06:14:02;1.73;;;0.80;;
70605;SDS011;58173;52.500;5.494;2024-01-15T06:16:29;1.95;;;0.45;;
70605;SDS011;58173;52.500;5.494;2024-01-15T06:18:56;6.75;;;2.28;;
70605;SDS011;58173;52.500;5.494;2024-01-15T06:21:24;3.63;;;1.38;;
70605;SDS011;58173;52.500;5.494;2024-01-15T06:23:51;1.48;;;0.55;;
70605;SDS011;58173;52.500;5.494;2024-01-15T06:26:19;3.65;;;0.90;;
70605;SDS011;58173;52.500;5.494;2024-01-15T06:28:46;13.30;;;4.78;;
70605;SDS011;58173;52.500;5.494;2024-01-15T06:31:13;5.93;;;2.38;;
70605;SDS011;58173;52.500;5.494;2024-01-15T06:33:40;7.53;;;2.20;;
70605;SDS011;58173;52.500;5.494;2024-01-15T06:36:08;3.75;;;1.27;;
70605;SDS011;58173;52.500;5.494;2024-01-15T06:38:35;2.95;;;1.13;;
70605;SDS011;58173;52.500;5.494;2024-01-15T06:41:02;2.55;;;0.90;;
70605;SDS011;58173;52.500;5.494;2024-01-15T06:43:30;8.40;;;1.05;;
70605;SDS011;58173;52.500;5.494;2024-01-15T06:45:57;4.13;;;0.90;;
70605;SDS011;58173;52.500;5.494;2024-01-15T06:48:26;2.83;;;0.95;;
70605;SDS011;58173;52.500;5.494;2024-01-15T06:50:53;3.83;;;1.00;;
70605;SDS011;58173;52.500;5.494;2024-01-15T06:53:21;4.45;;;0.63;;
70605;SDS011;58173;52.500;5.494;2024-01-15T06:55:48;6.95;;;1.02;;
70605;SDS011;58173;52.500;5.494;2024-01-15T06:58:17;8.07;;;1.30;;
70605;SDS011;58173;52.500;5.494;2024-01-15T07:00:44;2.03;;;0.60;;
70605;SDS011;58173;52.500;5.494;2024-01-15T07:03:12;7.45;;;1.00;;
70605;SDS011;58173;52.500;5.494;2024-01-15T07:05:39;3.92;;;0.60;;
70605;SDS011;58173;52.500;5.494;2024-01-15T07:08:06;4.22;;;0.57;;
70605;SDS011;58173;52.500;5.494;2024-01-15T07:10:33;7.80;;;1.63;;
70605;SDS011;58173;52.500;5.494;2024-01-15T07:13:03;3.65;;;0.88;;
70605;SDS011;58173;52.500;5.494;2024-01-15T07:15:31;5.57;;;0.82;;
70605;SDS011;58173;52.500;5.494;2024-01-15T07:17:59;6.50;;;1.20;;
70605;SDS011;58173;52.500;5.494;2024-01-15T07:20:26;4.03;;;1.45;;
70605;SDS011;58173;52.500;5.494;2024-01-15T07:22:53;4.45;;;1.40;;
70605;SDS011;58173;52.500;5.494;2024-01-15T07:25:21;4.70;;;1.27;;
70605;SDS011;58173;52.500;5.494;2024-01-15T07:27:48;2.40;;;1.00;;
70605;SDS011;58173;52.500;5.494;2024-01-15T07:30:15;8.05;;;1.05;;
70605;SDS011;58173;52.500;5.494;2024-01-15T07:32:43;1.15;;;0.60;;
70605;SDS011;58173;52.500;5.494;2024-01-15T07:35:10;4.22;;;1.50;;
70605;SDS011;58173;52.500;5.494;2024-01-15T07:37:37;4.05;;;0.85;;
70605;SDS011;58173;52.500;5.494;2024-01-15T07:40:05;6.88;;;2.42;;
70605;SDS011;58173;52.500;5.494;2024-01-15T07:42:34;7.75;;;2.40;;
70605;SDS011;58173;52.500;5.494;2024-01-15T07:45:02;8.02;;;2.95;;
70605;SDS011;58173;52.500;5.494;2024-01-15T07:47:29;5.25;;;1.70;;
70605;SDS011;58173;52.500;5.494;2024-01-15T07:49:57;16.90;;;6.18;;
70605;SDS011;58173;52.500;5.494;2024-01-15T07:52:31;16.40;;;5.10;;
70605;SDS011;58173;52.500;5.494;2024-01-15T07:54:58;10.88;;;3.05;;
70605;SDS011;58173;52.500;5.494;2024-01-15T07:57:30;16.40;;;5.72;;
70605;SDS011;58173;52.500;5.494;2024-01-15T07:59:57;10.35;;;3.95;;
70605;SDS011;58173;52.500;5.494;2024-01-15T08:02:24;17.08;;;7.03;;
70605;SDS011;58173;52.500;5.494;2024-01-15T08:04:52;20.88;;;8.63;;
70605;SDS011;58173;52.500;5.494;2024-01-15T08:07:19;14.52;;;5.32;;
70605;SDS011;58173;52.500;5.494;2024-01-15T08:09:46;13.75;;;6.05;;
70605;SDS011;58173;52.500;5.494;2024-01-15T08:12:15;6.72;;;2.35;;
70605;SDS011;58173;52.500;5.494;2024-01-15T08:14:42;5.13;;;1.17;;
70605;SDS011;58173;52.500;5.494;2024-01-15T08:17:09;6.55;;;1.55;;
70605;SDS011;58173;52.500;5.494;2024-01-15T08:19:37;4.80;;;1.10;;
70605;SDS011;58173;52.500;5.494;2024-01-15T08:22:07;8.27;;;2.20;;
70605;SDS011;58173;52.500;5.494;2024-01-15T08:24:35;6.28;;;2.10;;
70605;SDS011;58173;52.500;5.494;2024-01-15T08:27:02;9.30;;;1.42;;
70605;SDS011;58173;52.500;5.494;2024-01-15T08:29:31;6.90;;;1.70;;
70605;SDS011;58173;52.500;5.494;2024-01-15T08:31:59;4.03;;;0.95;;
70605;SDS011;58173;52.500;5.494;2024-01-15T08:34:27;8.50;;;1.83;;
70605;SDS011;58173;52.500;5.494;2024-01-15T08:36:57;12.43;;;2.50;;
70605;SDS011;58173;52.500;5.494;2024-01-15T08:39:24;7.75;;;1.77;;
70605;SDS011;58173;52.500;5.494;2024-01-15T08:41:51;8.63;;;1.98;;
70605;SDS011;58173;52.500;5.494;2024-01-15T08:44:18;10.90;;;2.85;;
70605;SDS011;58173;52.500;5.494;2024-01-15T08:46:45;7.72;;;2.45;;
70605;SDS011;58173;52.500;5.494;2024-01-15T08:49:13;5.65;;;1.85;;
70605;SDS011;58173;52.500;5.494;2024-01-15T08:51:40;4.32;;;1.50;;
70605;SDS011;58173;52.500;5.494;2024-01-15T08:54:07;5.70;;;0.93;;
70605;SDS011;58173;52.500;5.494;2024-01-15T08:56:35;4.28;;;1.00;;
70605;SDS011;58173;52.500;5.494;2024-01-15T08:59:02;4.50;;;1.05;;
70605;SDS011;58173;52.500;5.494;2024-01-15T09:01:29;2.22;;;1.10;;
70605;SDS011;58173;52.500;5.494;2024-01-15T09:03:57;8.35;;;2.53;;
70605;SDS011;58173;52.500;5.494;2024-01-15T09:06:24;7.72;;;2.45;;
70605;SDS011;58173;52.500;5.494;2024-01-15T09:08:51;5.22;;;1.50;;
70605;SDS011;58173;52.500;5.494;2024-01-15T09:11:19;7.50;;;2.15;;
70605;SDS011;58173;52.500;5.494;2024-01-15T09:13:46;4.72;;;1.58;;
70605;SDS011;58173;52.500;5.494;2024-01-15T09:16:13;9.90;;;2.17;;
70605;SDS011;58173;52.500;5.494;2024-01-15T09:18:41;7.88;;;2.03;;
70605;SDS011;58173;52.500;5.494;2024-01-15T09:21:08;6.45;;;1.33;;
70605;SDS011;58173;52.500;5.494;2024-01-15T09:23:35;5.63;;;1.25;;
70605;SDS011;58173;52.500;5.494;2024-01-15T09:26:02;3.58;;;1.08;;
70605;SDS011;58173;52.500;5.494;2024-01-15T09:28:30;5.13;;;0.98;;
70605;SDS011;58173;52.500;5.494;2024-01-15T09:30:57;4.82;;;1.38;;
70605;SDS011;58173;52.500;5.494;2024-01-15T09:33:24;6.10;;;1.25;;
70605;SDS011;58173;52.500;5.494;2024-01-15T09:35:52;3.22;;;0.70;;
70605;SDS011;58173;52.500;5.494;2024-01-15T09:38:19;3.00;;;0.47;;
70605;SDS011;58173;52.500;5.494;2024-01-15T09:40:46;2.33;;;0.90;;
70605;SDS011;58173;52.500;5.494;2024-01-15T09:43:15;3.83;;;0.90;;
70605;SDS011;58173;52.500;5.494;2024-01-15T09:45:43;3.85;;;0.75;;
70605;SDS011;58173;52.500;5.494;2024-01-15T09:48:11;5.55;;;1.17;;
70605;SDS011;58173;52.500;5.494;2024-01-15T09:50:39;5.53;;;0.85;;
70605;SDS011;58173;52.500;5.494;2024-01-15T09:53:06;5.18;;;0.80;;
70605;SDS011;58173;52.500;5.494;2024-01-15T09:55:33;4.75;;;0.88;;
70605;SDS011;58173;52.500;5.494;2024-01-15T09:58:00;0.93;;;0.43;;
70605;SDS011;58173;52.500;5.494;2024-01-15T10:00:28;5.53;;;1.35;;
70605;SDS011;58173;52.500;5.494;2024-01-15T10:02:57;16.73;;;1.00;;
70605;SDS011;58173;52.500;5.494;2024-01-15T10:05:26;2.80;;;0.75;;
70605;SDS011;58173;52.500;5.494;2024-01-15T10:07:54;1.85;;;0.38;;
70605;SDS011;58173;52.500;5.494;2024-01-15T10:10:24;3.95;;;1.33;;
70605;SDS011;58173;52.500;5.494;2024-01-15T10:12:51;1.48;;;0.55;;
70605;SDS011;58173;52.500;5.494;2024-01-15T10:15:21;3.20;;;0.95;;
70605;SDS011;58173;52.500;5.494;2024-01-15T10:17:50;3.60;;;0.88;;
70605;SDS011;58173;52.500;5.494;2024-01-15T10:20:17;1.23;;;0.52;;
70605;SDS011;58173;52.500;5.494;2024-01-15T10:22:44;4.65;;;1.33;;
70605;SDS011;58173;52.500;5.494;2024-01-15T10:25:15;1.83;;;0.75;;
70605;SDS011;58173;52.500;5.494;2024-01-15T10:27:42;2.38;;;1.15;;
70605;SDS011;58173;52.500;5.494;2024-01-15T10:30:10;2.70;;;0.45;;
70605;SDS011;58173;52.500;5.494;2024-01-15T10:32:40;5.07;;;0.80;;
70605;SDS011;58173;52.500;5.494;2024-01-15T10:35:07;5.97;;;1.10;;
70605;SDS011;58173;52.500;5.494;2024-01-15T10:37:35;2.83;;;1.15;;
70605;SDS011;58173;52.500;5.494;2024-01-15T10:40:02;1.85;;;0.40;;
70605;SDS011;58173;52.500;5.494;2024-01-15T10:42:31;1.70;;;0.60;;
70605;SDS011;58173;52.500;5.494;2024-01-15T10:44:58;2.67;;;0.68;;
70605;SDS011;58173;52.500;5.494;2024-01-15T10:47:26;2.63;;;0.52;;
70605;SDS011;58173;52.500;5.494;2024-01-15T10:49:53;1.17;;;0.55;;
70605;SDS011;58173;52.500;5.494;2024-01-15T10:52:21;3.22;;;0.52;;
70605;SDS011;58173;52.500;5.494;2024-01-15T10:54:48;0.55;;;0.20;;
70605;SDS011;58173;52.500;5.494;2024-01-15T10:57:16;2.90;;;0.68;;
70605;SDS011;58173;52.500;5.494;2024-01-15T10:59:43;0.50;;;0.50;;
70605;SDS011;58173;52.500;5.494;2024-01-15T11:02:10;0.35;;;0.28;;
70605;SDS011;58173;52.500;5.494;2024-01-15T11:04:37;0.43;;;0.43;;
70605;SDS011;58173;52.500;5.494;2024-01-15T11:07:05;1.08;;;0.45;;
70605;SDS011;58173;52.500;5.494;2024-01-15T11:09:32;2.00;;;0.70;;
70605;SDS011;58173;52.500;5.494;2024-01-15T11:12:07;2.45;;;0.55;;
70605;SDS011;58173;52.500;5.494;2024-01-15T11:14:41;1.92;;;0.40;;
70605;SDS011;58173;52.500;5.494;2024-01-15T11:19:47;3.03;;;0.80;;
70605;SDS011;58173;52.500;5.494;2024-01-15T11:24:57;5.07;;;0.65;;
70605;SDS011;58173;52.500;5.494;2024-01-15T11:27:41;3.08;;;0.50;;
70605;SDS011;58173;52.500;5.494;2024-01-15T11:30:09;2.38;;;0.47;;
70605;SDS011;58173;52.500;5.494;2024-01-15T11:32:38;4.03;;;0.60;;
70605;SDS011;58173;52.500;5.494;2024-01-15T11:35:09;3.45;;;0.70;;
70605;SDS011;58173;52.500;5.494;2024-01-15T11:43:00;4.40;;;0.73;;
70605;SDS011;58173;52.500;5.494;2024-01-15T11:45:27;6.00;;;1.08;;
70605;SDS011;58173;52.500;5.494;2024-01-15T11:50:22;4.30;;;0.82;;
70605;SDS011;58173;52.500;5.494;2024-01-15T11:52:57;5.90;;;1.02;;
70605;SDS011;58173;52.500;5.494;2024-01-15T11:55:33;4.50;;;0.50;;
70605;SDS011;58173;52.500;5.494;2024-01-15T12:00:29;4.90;;;0.68;;
70605;SDS011;58173;52.500;5.494;2024-01-15T12:02:58;3.00;;;0.85;;
70605;SDS011;58173;52.500;5.494;2024-01-15T12:05:25;5.00;;;0.90;;
70605;SDS011;58173;52.500;5.494;2024-01-15T12:07:52;2.28;;;0.73;;
70605;SDS011;58173;52.500;5.494;2024-01-15T12:10:20;2.47;;;0.88;;
70605;SDS011;58173;52.500;5.494;2024-01-15T12:15:47;1.63;;;0.60;;
70605;SDS011;58173;52.500;5.494;2024-01-15T12:18:16;3.13;;;0.88;;
70605;SDS011;58173;52.500;5.494;2024-01-15T12:20:44;5.18;;;0.95;;
70605;SDS011;58173;52.500;5.494;2024-01-15T12:23:16;3.20;;;0.70;;
70605;SDS011;58173;52.500;5.494;2024-01-15T12:25:44;4.70;;;0.50;;
70605;SDS011;58173;52.500;5.494;2024-01-15T12:28:11;4.20;;;0.75;;
70605;SDS011;58173;52.500;5.494;2024-01-15T12:30:38;1.92;;;0.63;;
70605;SDS011;58173;52.500;5.494;2024-01-15T12:33:07;1.75;;;1.00;;
70605;SDS011;58173;52.500;5.494;2024-01-15T12:35:36;2.45;;;0.57;;
70605;SDS011;58173;52.500;5.494;2024-01-15T12:38:03;4.32;;;0.60;;
70605;SDS011;58173;52.500;5.494;2024-01-15T12:40:32;2.55;;;0.65;;
70605;SDS011;58173;52.500;5.494;2024-01-15T12:43:00;2.47;;;0.82;;
70605;SDS011;58173;52.500;5.494;2024-01-15T12:45:28;1.17;;;0.28;;
70605;SDS011;58173;52.500;5.494;2024-01-15T12:47:55;6.35;;;0.82;;
70605;SDS011;58173;52.500;5.494;2024-01-15T12:50:24;3.22;;;0.65;;
70605;SDS011;58173;52.500;5.494;2024-01-15T12:52:52;3.70;;;0.68;;
70605;SDS011;58173;52.500;5.494;2024-01-15T12:55:20;4.35;;;1.00;;
70605;SDS011;58173;52.500;5.494;2024-01-15T12:57:49;2.92;;;0.77;;
70605;SDS011;58173;52.500;5.494;2024-01-15T13:00:19;1.65;;;0.50;;
70605;SDS011;58173;52.500;5.494;2024-01-15T13:02:46;4.72;;;0.90;;
70605;SDS011;58173;52.500;5.494;2024-01-15T13:05:14;4.35;;;0.43;;
70605;SDS011;58173;52.500;5.494;2024-01-15T13:07:43;0.25;;;0.25;;
70605;SDS011;58173;52.500;5.494;2024-01-15T13:10:10;0.93;;;0.40;;
70605;SDS011;58173;52.500;5.494;2024-01-15T13:12:39;2.08;;;0.45;;
70605;SDS011;58173;52.500;5.494;2024-01-15T13:15:07;1.50;;;0.60;;
70605;SDS011;58173;52.500;5.494;2024-01-15T13:17:40;2.95;;;0.77;;
70605;SDS011;58173;52.500;5.494;2024-01-15T13:20:08;2.50;;;0.60;;
70605;SDS011;58173;52.500;5.494;2024-01-15T13:22:36;5.28;;;0.95;;
70605;SDS011;58173;52.500;5.494;2024-01-15T13:25:06;3.28;;;0.80;;
70605;SDS011;58173;52.500;5.494;2024-01-15T13:27:34;1.10;;;0.50;;
70605;SDS011;58173;52.500;5.494;2024-01-15T13:30:02;1.15;;;0.50;;
70605;SDS011;58173;52.500;5.494;2024-01-15T13:32:30;4.13;;;0.80;;
70605;SDS011;58173;52.500;5.494;2024-01-15T13:34:57;1.98;;;0.40;;
70605;SDS011;58173;52.500;5.494;2024-01-15T13:37:24;2.08;;;0.82;;
70605;SDS011;58173;52.500;5.494;2024-01-15T13:39:52;6.78;;;1.40;;
70605;SDS011;58173;52.500;5.494;2024-01-15T13:42:20;4.50;;;1.10;;
70605;SDS011;58173;52.500;5.494;2024-01-15T13:44:53;8.80;;;1.60;;
70605;SDS011;58173;52.500;5.494;2024-01-15T13:47:20;4.38;;;1.20;;
70605;SDS011;58173;52.500;5.494;2024-01-15T13:49:48;3.58;;;0.90;;
70605;SDS011;58173;52.500;5.494;2024-01-15T13:52:16;1.38;;;0.63;;
70605;SDS011;58173;52.500;5.494;2024-01-15T13:54:44;2.17;;;0.63;;
70605;SDS011;58173;52.500;5.494;2024-01-15T13:57:16;1.45;;;0.52;;
70605;SDS011;58173;52.500;5.494;2024-01-15T13:59:44;5.82;;;2.03;;
70605;SDS011;58173;52.500;5.494;2024-01-15T14:02:12;18.88;;;5.32;;
70605;SDS011;58173;52.500;5.494;2024-01-15T14:04:46;7.63;;;1.85;;
70605;SDS011;58173;52.500;5.494;2024-01-15T14:07:13;4.78;;;0.95;;
70605;SDS011;58173;52.500;5.494;2024-01-15T14:09:41;4.68;;;0.70;;
70605;SDS011;58173;52.500;5.494;2024-01-15T14:12:09;5.63;;;1.05;;
70605;SDS011;58173;52.500;5.494;2024-01-15T14:14:36;4.82;;;1.42;;
70605;SDS011;58173;52.500;5.494;2024-01-15T14:17:03;4.70;;;0.85;;
70605;SDS011;58173;52.500;5.494;2024-01-15T14:19:30;5.43;;;1.42;;
70605;SDS011;58173;52.500;5.494;2024-01-15T14:21:58;7.30;;;2.08;;
70605;SDS011;58173;52.500;5.494;2024-01-15T14:24:25;7.28;;;1.77;;
70605;SDS011;58173;52.500;5.494;2024-01-15T14:26:52;8.18;;;1.10;;
70605;SDS011;58173;52.500;5.494;2024-01-15T14:29:20;8.75;;;1.75;;
70605;SDS011;58173;52.500;5.494;2024-01-15T14:31:48;6.22;;;0.77;;
70605;SDS011;58173;52.500;5.494;2024-01-15T14:34:16;4.47;;;0.88;;
70605;SDS011;58173;52.500;5.494;2024-01-15T14:36:44;3.22;;;0.80;;
70605;SDS011;58173;52.500;5.494;2024-01-15T14:39:13;5.82;;;1.20;;
70605;SDS011;58173;52.500;5.494;2024-01-15T14:41:40;11.20;;;1.33;;
70605;SDS011;58173;52.500;5.494;2024-01-15T14:44:08;4.38;;;1.00;;
70605;SDS011;58173;52.500;5.494;2024-01-15T14:46:35;5.38;;;1.10;;
70605;SDS011;58173;52.500;5.494;2024-01-15T14:49:03;4.32;;;1.10;;
70605;SDS011;58173;52.500;5.494;2024-01-15T14:51:30;2.85;;;0.70;;
70605;SDS011;58173;52.500;5.494;2024-01-15T14:53:57;3.25;;;0.82;;
70605;SDS011;58173;52.500;5.494;2024-01-15T14:56:25;2.20;;;0.60;;
70605;SDS011;58173;52.500;5.494;2024-01-15T14:58:52;7.50;;;0.80;;
70605;SDS011;58173;52.500;5.494;2024-01-15T15:01:19;7.65;;;1.10;;
70605;SDS011;58173;52.500;5.494;2024-01-15T15:03:46;7.70;;;0.80;;
70605;SDS011;58173;52.500;5.494;2024-01-15T15:06:14;4.05;;;1.10;;
70605;SDS011;58173;52.500;5.494;2024-01-15T15:08:42;3.80;;;0.80;;
70605;SDS011;58173;52.500;5.494;2024-01-15T15:11:10;3.95;;;0.80;;